sensor_id;sensor_type;location;lat;lon;timestamp;P1;durP1;ratioP1;P2;durP2;ratioP2
549;SDS011;20066;48.764;9.176;2023-09-08T00:00:34;16.70;;;7.67;;
549;SDS011;20066;48.764;9.176;2023-09-08T00:03:03;12.60;;;8.50;;
549;SDS011;20066;48.764;9.176;2023-09-08T00:05:32;14.20;;;7.90;;
549;SDS011;20066;48.764;9.176;2023-09-08T00:08:01;15.33;;;7.80;;
549;SDS011;20066;48.764;9.176;2023-09-08T00:10:29;11.00;;;7.60;;
549;SDS011;20066;48.764;9.176;2023-09-08T00:12:57;12.53;;;7.73;;
549;SDS011;20066;48.764;9.176;2023-09-08T00:15:25;11.07;;;7.60;;
549;SDS011;20066;48.764;9.176;2023-09-08T00:17:53;13.23;;;8.07;;
549;SDS011;20066;48.764;9.176;2023-09-08T00:20:23;11.50;;;8.23;;
549;SDS011;20066;48.764;9.176;2023-09-08T00:22:52;12.13;;;8.27;;
549;SDS011;20066;48.764;9.176;2023-09-08T00:25:21;13.20;;;8.33;;
549;SDS011;20066;48.764;9.176;2023-09-08T00:27:49;12.27;;;8.20;;
549;SDS011;20066;48.764;9.176;2023-09-08T00:30:17;13.23;;;8.50;;
549;SDS011;20066;48.764;9.176;2023-09-08T00:32:47;16.53;;;8.20;;
549;SDS011;20066;48.764;9.176;2023-09-08T00:35:15;12.40;;;8.40;;
549;SDS011;20066;48.764;9.176;2023-09-08T00:37:43;14.10;;;8.17;;
549;SDS011;20066;48.764;9.176;2023-09-08T00:40:13;12.23;;;8.27;;
549;SDS011;20066;48.764;9.176;2023-09-08T00:42:41;13.47;;;8.33;;
549;SDS011;20066;48.764;9.176;2023-09-08T00:45:09;9.60;;;6.90;;
549;SDS011;20066;48.764;9.176;2023-09-08T00:47:38;15.10;;;8.87;;
549;SDS011;20066;48.764;9.176;2023-09-08T00:50:06;12.73;;;7.53;;
549;SDS011;20066;48.764;9.176;2023-09-08T00:52:35;12.00;;;7.53;;
549;SDS011;20066;48.764;9.176;2023-09-08T00:55:04;11.53;;;8.10;;
549;SDS011;20066;48.764;9.176;2023-09-08T00:57:33;12.43;;;8.50;;
549;SDS011;20066;48.764;9.176;2023-09-08T01:00:02;12.13;;;8.10;;
549;SDS011;20066;48.764;9.176;2023-09-08T01:02:33;12.73;;;8.13;;
549;SDS011;20066;48.764;9.176;2023-09-08T01:05:00;14.53;;;8.67;;
549;SDS011;20066;48.764;9.176;2023-09-08T01:07:29;15.03;;;8.00;;
549;SDS011;20066;48.764;9.176;2023-09-08T01:09:59;13.33;;;7.90;;
549;SDS011;20066;48.764;9.176;2023-09-08T01:12:30;13.90;;;8.60;;
549;SDS011;20066;48.764;9.176;2023-09-08T01:15:01;15.70;;;8.00;;
549;SDS011;20066;48.764;9.176;2023-09-08T01:17:29;13.67;;;7.57;;
549;SDS011;20066;48.764;9.176;2023-09-08T01:19:58;11.00;;;7.97;;
549;SDS011;20066;48.764;9.176;2023-09-08T01:22:39;15.17;;;9.03;;
549;SDS011;20066;48.764;9.176;2023-09-08T01:25:19;13.63;;;8.47;;
549;SDS011;20066;48.764;9.176;2023-09-08T01:27:50;15.20;;;8.30;;
549;SDS011;20066;48.764;9.176;2023-09-08T01:30:20;14.70;;;8.57;;
549;SDS011;20066;48.764;9.176;2023-09-08T01:32:50;11.63;;;8.07;;
549;SDS011;20066;48.764;9.176;2023-09-08T01:35:20;11.97;;;8.10;;
549;SDS011;20066;48.764;9.176;2023-09-08T01:37:49;13.23;;;7.70;;
549;SDS011;20066;48.764;9.176;2023-09-08T01:40:17;11.30;;;7.50;;
549;SDS011;20066;48.764;9.176;2023-09-08T01:42:47;13.73;;;8.20;;
549;SDS011;20066;48.764;9.176;2023-09-08T01:45:16;15.10;;;9.27;;
549;SDS011;20066;48.764;9.176;2023-09-08T01:47:44;19.20;;;8.73;;
549;SDS011;20066;48.764;9.176;2023-09-08T01:50:12;13.53;;;9.00;;
549;SDS011;20066;48.764;9.176;2023-09-08T01:52:41;14.50;;;9.13;;
549;SDS011;20066;48.764;9.176;2023-09-08T01:55:09;20.83;;;8.90;;
549;SDS011;20066;48.764;9.176;2023-09-08T01:57:38;11.00;;;7.57;;
549;SDS011;20066;48.764;9.176;2023-09-08T02:00:09;14.57;;;8.40;;
549;SDS011;20066;48.764;9.176;2023-09-08T02:02:38;10.77;;;7.23;;
549;SDS011;20066;48.764;9.176;2023-09-08T02:05:06;11.40;;;7.60;;
549;SDS011;20066;48.764;9.176;2023-09-08T02:07:35;12.77;;;8.40;;
549;SDS011;20066;48.764;9.176;2023-09-08T02:10:03;12.50;;;8.33;;
549;SDS011;20066;48.764;9.176;2023-09-08T02:12:32;11.33;;;8.33;;
549;SDS011;20066;48.764;9.176;2023-09-08T02:15:00;12.73;;;8.07;;
549;SDS011;20066;48.764;9.176;2023-09-08T02:17:31;12.40;;;8.20;;
549;SDS011;20066;48.764;9.176;2023-09-08T02:19:59;10.37;;;7.70;;
549;SDS011;20066;48.764;9.176;2023-09-08T02:22:29;14.20;;;8.43;;
549;SDS011;20066;48.764;9.176;2023-09-08T02:24:58;12.90;;;7.80;;
549;SDS011;20066;48.764;9.176;2023-09-08T02:27:27;14.70;;;7.90;;
549;SDS011;20066;48.764;9.176;2023-09-08T02:29:55;10.40;;;8.00;;
549;SDS011;20066;48.764;9.176;2023-09-08T02:32:23;15.67;;;8.27;;
549;SDS011;20066;48.764;9.176;2023-09-08T02:34:52;14.90;;;8.20;;
549;SDS011;20066;48.764;9.176;2023-09-08T02:37:22;14.30;;;8.20;;
549;SDS011;20066;48.764;9.176;2023-09-08T02:39:51;15.00;;;8.73;;
549;SDS011;20066;48.764;9.176;2023-09-08T02:42:19;14.80;;;8.13;;
549;SDS011;20066;48.764;9.176;2023-09-08T02:44:47;13.20;;;7.83;;
549;SDS011;20066;48.764;9.176;2023-09-08T02:47:16;19.33;;;8.17;;
549;SDS011;20066;48.764;9.176;2023-09-08T02:49:45;21.53;;;8.33;;
549;SDS011;20066;48.764;9.176;2023-09-08T02:52:14;12.30;;;7.90;;
549;SDS011;20066;48.764;9.176;2023-09-08T02:54:41;11.60;;;8.00;;
549;SDS011;20066;48.764;9.176;2023-09-08T02:57:09;12.20;;;7.70;;
549;SDS011;20066;48.764;9.176;2023-09-08T02:59:37;12.20;;;8.27;;
549;SDS011;20066;48.764;9.176;2023-09-08T03:02:06;13.77;;;7.97;;
549;SDS011;20066;48.764;9.176;2023-09-08T03:04:34;11.27;;;7.80;;
549;SDS011;20066;48.764;9.176;2023-09-08T03:07:03;12.70;;;7.40;;
549;SDS011;20066;48.764;9.176;2023-09-08T03:09:32;11.70;;;8.17;;
549;SDS011;20066;48.764;9.176;2023-09-08T03:12:01;12.77;;;8.30;;
549;SDS011;20066;48.764;9.176;2023-09-08T03:14:30;11.80;;;7.50;;
549;SDS011;20066;48.764;9.176;2023-09-08T03:16:58;12.30;;;8.70;;
549;SDS011;20066;48.764;9.176;2023-09-08T03:19:26;12.77;;;8.17;;
549;SDS011;20066;48.764;9.176;2023-09-08T03:21:54;11.87;;;7.27;;
549;SDS011;20066;48.764;9.176;2023-09-08T03:24:22;10.83;;;7.23;;
549;SDS011;20066;48.764;9.176;2023-09-08T03:26:52;11.80;;;7.67;;
549;SDS011;20066;48.764;9.176;2023-09-08T03:29:20;12.20;;;7.30;;
549;SDS011;20066;48.764;9.176;2023-09-08T03:31:48;12.10;;;8.00;;
549;SDS011;20066;48.764;9.176;2023-09-08T03:34:16;14.50;;;8.40;;
549;SDS011;20066;48.764;9.176;2023-09-08T03:36:48;11.33;;;8.03;;
549;SDS011;20066;48.764;9.176;2023-09-08T03:39:17;17.97;;;8.30;;
549;SDS011;20066;48.764;9.176;2023-09-08T03:41:46;12.00;;;7.50;;
549;SDS011;20066;48.764;9.176;2023-09-08T03:44:16;20.90;;;8.20;;
549;SDS011;20066;48.764;9.176;2023-09-08T03:46:44;13.90;;;7.77;;
549;SDS011;20066;48.764;9.176;2023-09-08T03:49:12;12.87;;;7.90;;
549;SDS011;20066;48.764;9.176;2023-09-08T03:51:41;18.13;;;7.67;;
549;SDS011;20066;48.764;9.176;2023-09-08T03:54:09;13.13;;;7.70;;
549;SDS011;20066;48.764;9.176;2023-09-08T03:56:37;11.63;;;7.53;;
549;SDS011;20066;48.764;9.176;2023-09-08T03:59:05;13.17;;;8.63;;
549;SDS011;20066;48.764;9.176;2023-09-08T04:01:35;13.53;;;8.70;;
549;SDS011;20066;48.764;9.176;2023-09-08T04:04:03;14.00;;;8.00;;
549;SDS011;20066;48.764;9.176;2023-09-08T04:06:32;10.50;;;7.30;;
549;SDS011;20066;48.764;9.176;2023-09-08T04:09:00;12.53;;;7.93;;
549;SDS011;20066;48.764;9.176;2023-09-08T04:11:28;12.73;;;7.60;;
549;SDS011;20066;48.764;9.176;2023-09-08T04:13:56;16.40;;;7.80;;
549;SDS011;20066;48.764;9.176;2023-09-08T04:16:25;14.40;;;9.03;;
549;SDS011;20066;48.764;9.176;2023-09-08T04:18:55;11.57;;;8.40;;
549;SDS011;20066;48.764;9.176;2023-09-08T04:21:23;12.07;;;7.83;;
549;SDS011;20066;48.764;9.176;2023-09-08T04:23:51;10.83;;;7.87;;
549;SDS011;20066;48.764;9.176;2023-09-08T04:26:19;13.13;;;8.33;;
549;SDS011;20066;48.764;9.176;2023-09-08T04:28:47;17.63;;;8.60;;
549;SDS011;20066;48.764;9.176;2023-09-08T04:31:15;13.07;;;7.50;;
549;SDS011;20066;48.764;9.176;2023-09-08T04:33:44;11.70;;;7.40;;
549;SDS011;20066;48.764;9.176;2023-09-08T04:36:14;12.57;;;7.87;;
549;SDS011;20066;48.764;9.176;2023-09-08T04:38:42;11.47;;;7.27;;
549;SDS011;20066;48.764;9.176;2023-09-08T04:41:11;13.13;;;8.33;;
549;SDS011;20066;48.764;9.176;2023-09-08T04:43:43;14.37;;;7.87;;
549;SDS011;20066;48.764;9.176;2023-09-08T04:46:11;13.00;;;7.77;;
549;SDS011;20066;48.764;9.176;2023-09-08T04:48:40;12.43;;;7.40;;
549;SDS011;20066;48.764;9.176;2023-09-08T04:51:09;12.77;;;8.87;;
549;SDS011;20066;48.764;9.176;2023-09-08T04:53:39;14.20;;;8.47;;
549;SDS011;20066;48.764;9.176;2023-09-08T04:56:07;11.20;;;8.23;;
549;SDS011;20066;48.764;9.176;2023-09-08T04:58:36;10.77;;;7.50;;
549;SDS011;20066;48.764;9.176;2023-09-08T05:01:04;16.70;;;9.30;;
549;SDS011;20066;48.764;9.176;2023-09-08T05:03:32;11.80;;;8.00;;
549;SDS011;20066;48.764;9.176;2023-09-08T05:06:01;14.70;;;7.50;;
549;SDS011;20066;48.764;9.176;2023-09-08T05:08:29;15.30;;;9.30;;
549;SDS011;20066;48.764;9.176;2023-09-08T05:10:59;12.90;;;8.20;;
549;SDS011;20066;48.764;9.176;2023-09-08T05:13:27;13.50;;;8.83;;
549;SDS011;20066;48.764;9.176;2023-09-08T05:15:57;21.23;;;8.33;;
549;SDS011;20066;48.764;9.176;2023-09-08T05:18:38;14.30;;;8.40;;
549;SDS011;20066;48.764;9.176;2023-09-08T05:21:07;13.30;;;8.27;;
549;SDS011;20066;48.764;9.176;2023-09-08T05:23:35;14.97;;;8.40;;
549;SDS011;20066;48.764;9.176;2023-09-08T05:26:05;12.97;;;8.60;;
549;SDS011;20066;48.764;9.176;2023-09-08T05:28:33;13.03;;;8.37;;
549;SDS011;20066;48.764;9.176;2023-09-08T05:31:05;12.80;;;7.97;;
549;SDS011;20066;48.764;9.176;2023-09-08T05:33:33;13.20;;;8.37;;
549;SDS011;20066;48.764;9.176;2023-09-08T05:36:01;11.97;;;7.83;;
549;SDS011;20066;48.764;9.176;2023-09-08T05:38:29;13.37;;;8.70;;
549;SDS011;20066;48.764;9.176;2023-09-08T05:40:57;14.60;;;8.93;;
549;SDS011;20066;48.764;9.176;2023-09-08T05:43:26;11.93;;;8.00;;
549;SDS011;20066;48.764;9.176;2023-09-08T05:45:54;14.67;;;8.50;;
549;SDS011;20066;48.764;9.176;2023-09-08T05:48:22;12.10;;;8.10;;
549;SDS011;20066;48.764;9.176;2023-09-08T05:50:50;15.47;;;8.93;;
549;SDS011;20066;48.764;9.176;2023-09-08T05:53:18;13.70;;;8.30;;
549;SDS011;20066;48.764;9.176;2023-09-08T05:55:46;19.27;;;8.63;;
549;SDS011;20066;48.764;9.176;2023-09-08T05:58:14;15.53;;;8.70;;
549;SDS011;20066;48.764;9.176;2023-09-08T06:00:44;14.10;;;8.40;;
549;SDS011;20066;48.764;9.176;2023-09-08T06:03:12;11.67;;;8.63;;
549;SDS011;20066;48.764;9.176;2023-09-08T06:05:40;15.60;;;8.60;;
549;SDS011;20066;48.764;9.176;2023-09-08T06:08:09;17.13;;;8.93;;
549;SDS011;20066;48.764;9.176;2023-09-08T06:10:37;13.37;;;8.73;;
549;SDS011;20066;48.764;9.176;2023-09-08T06:13:06;14.27;;;9.43;;
549;SDS011;20066;48.764;9.176;2023-09-08T06:15:34;19.30;;;9.90;;
549;SDS011;20066;48.764;9.176;2023-09-08T06:18:04;14.83;;;9.13;;
549;SDS011;20066;48.764;9.176;2023-09-08T06:20:33;15.80;;;9.00;;
549;SDS011;20066;48.764;9.176;2023-09-08T06:23:01;17.43;;;9.50;;
549;SDS011;20066;48.764;9.176;2023-09-08T06:25:29;17.63;;;8.73;;
549;SDS011;20066;48.764;9.176;2023-09-08T06:27:57;17.30;;;8.50;;
549;SDS011;20066;48.764;9.176;2023-09-08T06:30:25;18.93;;;9.00;;
549;SDS011;20066;48.764;9.176;2023-09-08T06:32:53;15.20;;;9.10;;
549;SDS011;20066;48.764;9.176;2023-09-08T06:35:23;14.53;;;9.40;;
549;SDS011;20066;48.764;9.176;2023-09-08T06:37:53;16.33;;;9.93;;
549;SDS011;20066;48.764;9.176;2023-09-08T06:40:21;15.53;;;8.30;;
549;SDS011;20066;48.764;9.176;2023-09-08T06:42:48;17.23;;;9.40;;
549;SDS011;20066;48.764;9.176;2023-09-08T06:45:16;19.43;;;10.10;;
549;SDS011;20066;48.764;9.176;2023-09-08T06:47:45;15.00;;;9.13;;
549;SDS011;20066;48.764;9.176;2023-09-08T06:50:16;13.50;;;8.60;;
549;SDS011;20066;48.764;9.176;2023-09-08T06:52:46;16.20;;;9.57;;
549;SDS011;20066;48.764;9.176;2023-09-08T06:55:14;16.47;;;9.50;;
549;SDS011;20066;48.764;9.176;2023-09-08T06:57:43;17.27;;;10.17;;
549;SDS011;20066;48.764;9.176;2023-09-08T07:00:11;17.03;;;10.97;;
549;SDS011;20066;48.764;9.176;2023-09-08T07:02:40;19.90;;;10.73;;
549;SDS011;20066;48.764;9.176;2023-09-08T07:05:08;22.90;;;11.10;;
549;SDS011;20066;48.764;9.176;2023-09-08T07:07:37;26.83;;;12.43;;
549;SDS011;20066;48.764;9.176;2023-09-08T07:10:08;26.00;;;12.40;;
549;SDS011;20066;48.764;9.176;2023-09-08T07:12:37;47.30;;;16.63;;
549;SDS011;20066;48.764;9.176;2023-09-08T07:15:05;34.37;;;12.90;;
549;SDS011;20066;48.764;9.176;2023-09-08T07:17:35;32.57;;;14.03;;
549;SDS011;20066;48.764;9.176;2023-09-08T07:20:03;21.20;;;11.63;;
549;SDS011;20066;48.764;9.176;2023-09-08T07:22:32;24.20;;;12.40;;
549;SDS011;20066;48.764;9.176;2023-09-08T07:25:00;24.20;;;11.50;;
549;SDS011;20066;48.764;9.176;2023-09-08T07:27:30;24.17;;;10.67;;
549;SDS011;20066;48.764;9.176;2023-09-08T07:29:58;28.60;;;12.50;;
549;SDS011;20066;48.764;9.176;2023-09-08T07:32:26;30.43;;;13.13;;
549;SDS011;20066;48.764;9.176;2023-09-08T07:34:54;19.97;;;11.43;;
549;SDS011;20066;48.764;9.176;2023-09-08T07:37:22;22.07;;;11.67;;
549;SDS011;20066;48.764;9.176;2023-09-08T07:39:52;22.20;;;11.50;;
549;SDS011;20066;48.764;9.176;2023-09-08T07:42:20;15.90;;;10.63;;
549;SDS011;20066;48.764;9.176;2023-09-08T07:44:49;16.70;;;10.83;;
549;SDS011;20066;48.764;9.176;2023-09-08T07:47:17;15.83;;;10.20;;
549;SDS011;20066;48.764;9.176;2023-09-08T07:49:45;20.10;;;11.40;;
549;SDS011;20066;48.764;9.176;2023-09-08T07:52:15;22.60;;;11.67;;
549;SDS011;20066;48.764;9.176;2023-09-08T07:54:43;26.20;;;11.90;;
549;SDS011;20066;48.764;9.176;2023-09-08T07:57:11;20.83;;;10.73;;
549;SDS011;20066;48.764;9.176;2023-09-08T07:59:40;22.47;;;9.87;;
549;SDS011;20066;48.764;9.176;2023-09-08T08:02:14;18.23;;;9.47;;
549;SDS011;20066;48.764;9.176;2023-09-08T08:04:42;18.87;;;9.23;;
549;SDS011;20066;48.764;9.176;2023-09-08T08:07:10;14.00;;;8.93;;
549;SDS011;20066;48.764;9.176;2023-09-08T08:09:38;19.40;;;10.03;;
549;SDS011;20066;48.764;9.176;2023-09-08T08:12:06;17.10;;;9.67;;
549;SDS011;20066;48.764;9.176;2023-09-08T08:14:33;20.17;;;8.13;;
549;SDS011;20066;48.764;9.176;2023-09-08T08:17:02;23.53;;;7.90;;
549;SDS011;20066;48.764;9.176;2023-09-08T08:19:31;19.17;;;7.90;;
549;SDS011;20066;48.764;9.176;2023-09-08T08:21:59;17.67;;;8.67;;
549;SDS011;20066;48.764;9.176;2023-09-08T08:24:27;18.73;;;8.27;;
549;SDS011;20066;48.764;9.176;2023-09-08T08:26:55;18.00;;;9.20;;
549;SDS011;20066;48.764;9.176;2023-09-08T08:29:23;29.50;;;8.37;;
549;SDS011;20066;48.764;9.176;2023-09-08T08:31:51;14.43;;;7.70;;
549;SDS011;20066;48.764;9.176;2023-09-08T08:34:19;13.87;;;7.30;;
549;SDS011;20066;48.764;9.176;2023-09-08T08:36:49;15.87;;;8.67;;
549;SDS011;20066;48.764;9.176;2023-09-08T08:39:17;17.80;;;8.27;;
549;SDS011;20066;48.764;9.176;2023-09-08T08:41:45;20.83;;;9.33;;
549;SDS011;20066;48.764;9.176;2023-09-08T08:44:13;15.63;;;9.00;;
549;SDS011;20066;48.764;9.176;2023-09-08T08:46:44;15.87;;;8.33;;
549;SDS011;20066;48.764;9.176;2023-09-08T08:49:14;14.40;;;6.93;;
549;SDS011;20066;48.764;9.176;2023-09-08T08:51:44;14.73;;;7.47;;
549;SDS011;20066;48.764;9.176;2023-09-08T08:54:14;16.00;;;7.30;;
549;SDS011;20066;48.764;9.176;2023-09-08T08:56:43;16.60;;;7.50;;
549;SDS011;20066;48.764;9.176;2023-09-08T08:59:11;21.63;;;8.03;;
549;SDS011;20066;48.764;9.176;2023-09-08T09:01:41;14.00;;;7.60;;
549;SDS011;20066;48.764;9.176;2023-09-08T09:04:10;16.53;;;7.60;;
549;SDS011;20066;48.764;9.176;2023-09-08T09:06:39;14.87;;;7.67;;
549;SDS011;20066;48.764;9.176;2023-09-08T09:09:08;18.40;;;7.80;;
549;SDS011;20066;48.764;9.176;2023-09-08T09:11:39;19.57;;;7.87;;
549;SDS011;20066;48.764;9.176;2023-09-08T09:14:08;21.73;;;7.73;;
549;SDS011;20066;48.764;9.176;2023-09-08T09:16:38;15.60;;;8.10;;
549;SDS011;20066;48.764;9.176;2023-09-08T09:19:07;13.90;;;8.47;;
549;SDS011;20066;48.764;9.176;2023-09-08T09:21:42;18.23;;;9.10;;
549;SDS011;20066;48.764;9.176;2023-09-08T09:24:15;16.07;;;8.57;;
549;SDS011;20066;48.764;9.176;2023-09-08T09:26:48;15.80;;;7.10;;
549;SDS011;20066;48.764;9.176;2023-09-08T09:29:20;14.30;;;8.27;;
549;SDS011;20066;48.764;9.176;2023-09-08T09:31:51;12.77;;;7.60;;
549;SDS011;20066;48.764;9.176;2023-09-08T09:34:21;14.73;;;7.80;;
549;SDS011;20066;48.764;9.176;2023-09-08T09:36:56;16.57;;;9.67;;
549;SDS011;20066;48.764;9.176;2023-09-08T09:39:25;17.00;;;7.63;;
549;SDS011;20066;48.764;9.176;2023-09-08T09:41:58;14.63;;;7.60;;
549;SDS011;20066;48.764;9.176;2023-09-08T09:44:27;12.80;;;7.40;;
549;SDS011;20066;48.764;9.176;2023-09-08T09:46:57;16.13;;;8.20;;
549;SDS011;20066;48.764;9.176;2023-09-08T09:49:27;14.07;;;8.20;;
549;SDS011;20066;48.764;9.176;2023-09-08T09:51:58;16.53;;;8.10;;
549;SDS011;20066;48.764;9.176;2023-09-08T09:54:27;13.90;;;7.90;;
549;SDS011;20066;48.764;9.176;2023-09-08T09:56:58;15.00;;;8.20;;
549;SDS011;20066;48.764;9.176;2023-09-08T09:59:27;15.57;;;9.03;;
549;SDS011;20066;48.764;9.176;2023-09-08T10:01:55;14.77;;;8.30;;
549;SDS011;20066;48.764;9.176;2023-09-08T10:04:24;12.33;;;7.10;;
549;SDS011;20066;48.764;9.176;2023-09-08T10:06:52;14.47;;;8.13;;
549;SDS011;20066;48.764;9.176;2023-09-08T10:09:24;18.70;;;7.87;;
549;SDS011;20066;48.764;9.176;2023-09-08T10:11:52;15.50;;;7.20;;
549;SDS011;20066;48.764;9.176;2023-09-08T10:14:24;15.70;;;8.37;;
549;SDS011;20066;48.764;9.176;2023-09-08T10:16:56;12.77;;;7.37;;
549;SDS011;20066;48.764;9.176;2023-09-08T10:19:33;15.50;;;7.70;;
549;SDS011;20066;48.764;9.176;2023-09-08T10:22:11;15.47;;;7.93;;
549;SDS011;20066;48.764;9.176;2023-09-08T10:24:43;14.27;;;7.30;;
549;SDS011;20066;48.764;9.176;2023-09-08T10:27:13;19.33;;;7.20;;
549;SDS011;20066;48.764;9.176;2023-09-08T10:29:46;16.43;;;8.07;;
549;SDS011;20066;48.764;9.176;2023-09-08T10:32:15;14.90;;;7.63;;
549;SDS011;20066;48.764;9.176;2023-09-08T10:34:44;12.33;;;6.50;;
549;SDS011;20066;48.764;9.176;2023-09-08T10:37:22;20.70;;;8.00;;
549;SDS011;20066;48.764;9.176;2023-09-08T10:39:52;12.70;;;7.10;;
549;SDS011;20066;48.764;9.176;2023-09-08T10:42:21;11.90;;;7.37;;
549;SDS011;20066;48.764;9.176;2023-09-08T10:44:57;11.70;;;7.17;;
549;SDS011;20066;48.764;9.176;2023-09-08T10:47:30;15.00;;;7.30;;
549;SDS011;20066;48.764;9.176;2023-09-08T10:50:00;14.33;;;7.10;;
549;SDS011;20066;48.764;9.176;2023-09-08T10:52:31;13.10;;;7.47;;
549;SDS011;20066;48.764;9.176;2023-09-08T10:55:01;12.93;;;7.90;;
549;SDS011;20066;48.764;9.176;2023-09-08T10:57:32;10.63;;;6.97;;
549;SDS011;20066;48.764;9.176;2023-09-08T11:00:03;11.80;;;7.67;;
549;SDS011;20066;48.764;9.176;2023-09-08T11:02:40;10.20;;;6.70;;
549;SDS011;20066;48.764;9.176;2023-09-08T11:05:10;11.13;;;7.30;;
549;SDS011;20066;48.764;9.176;2023-09-08T11:07:40;11.90;;;6.03;;
549;SDS011;20066;48.764;9.176;2023-09-08T11:10:09;10.70;;;6.73;;
549;SDS011;20066;48.764;9.176;2023-09-08T11:12:37;10.80;;;7.73;;
549;SDS011;20066;48.764;9.176;2023-09-08T11:15:07;12.47;;;7.03;;
549;SDS011;20066;48.764;9.176;2023-09-08T11:17:36;10.57;;;7.03;;
549;SDS011;20066;48.764;9.176;2023-09-08T11:20:06;11.33;;;6.23;;
549;SDS011;20066;48.764;9.176;2023-09-08T11:22:36;10.43;;;6.90;;
549;SDS011;20066;48.764;9.176;2023-09-08T11:25:06;12.03;;;7.10;;
549;SDS011;20066;48.764;9.176;2023-09-08T11:27:37;14.40;;;7.40;;
549;SDS011;20066;48.764;9.176;2023-09-08T11:30:08;16.50;;;6.27;;
549;SDS011;20066;48.764;9.176;2023-09-08T11:32:36;15.60;;;7.50;;
549;SDS011;20066;48.764;9.176;2023-09-08T11:35:04;14.77;;;8.07;;
549;SDS011;20066;48.764;9.176;2023-09-08T11:37:36;10.43;;;6.93;;
549;SDS011;20066;48.764;9.176;2023-09-08T11:40:05;16.50;;;7.13;;
549;SDS011;20066;48.764;9.176;2023-09-08T11:42:39;14.70;;;6.73;;
549;SDS011;20066;48.764;9.176;2023-09-08T11:45:12;12.40;;;7.80;;
549;SDS011;20066;48.764;9.176;2023-09-08T11:47:41;17.23;;;7.77;;
549;SDS011;20066;48.764;9.176;2023-09-08T11:50:10;10.43;;;7.70;;
549;SDS011;20066;48.764;9.176;2023-09-08T11:52:43;14.60;;;7.50;;
549;SDS011;20066;48.764;9.176;2023-09-08T11:55:11;13.33;;;6.80;;
549;SDS011;20066;48.764;9.176;2023-09-08T11:57:40;16.00;;;8.47;;
549;SDS011;20066;48.764;9.176;2023-09-08T12:00:10;13.53;;;7.33;;
549;SDS011;20066;48.764;9.176;2023-09-08T12:02:44;11.27;;;7.30;;
549;SDS011;20066;48.764;9.176;2023-09-08T12:05:12;12.30;;;7.90;;
549;SDS011;20066;48.764;9.176;2023-09-08T12:07:41;10.90;;;7.57;;
549;SDS011;20066;48.764;9.176;2023-09-08T12:10:09;14.87;;;7.60;;
549;SDS011;20066;48.764;9.176;2023-09-08T12:12:42;11.23;;;7.67;;
549;SDS011;20066;48.764;9.176;2023-09-08T12:15:11;14.33;;;7.70;;
549;SDS011;20066;48.764;9.176;2023-09-08T12:17:50;12.30;;;8.33;;
549;SDS011;20066;48.764;9.176;2023-09-08T12:20:19;14.13;;;8.17;;
549;SDS011;20066;48.764;9.176;2023-09-08T12:22:48;13.50;;;8.40;;
549;SDS011;20066;48.764;9.176;2023-09-08T12:25:17;11.20;;;7.50;;
549;SDS011;20066;48.764;9.176;2023-09-08T12:27:49;17.80;;;8.17;;
549;SDS011;20066;48.764;9.176;2023-09-08T12:30:18;12.00;;;8.30;;
549;SDS011;20066;48.764;9.176;2023-09-08T12:32:47;10.80;;;7.87;;
549;SDS011;20066;48.764;9.176;2023-09-08T12:35:20;10.13;;;6.90;;
549;SDS011;20066;48.764;9.176;2023-09-08T12:37:56;12.50;;;7.57;;
549;SDS011;20066;48.764;9.176;2023-09-08T12:40:26;9.87;;;7.20;;
549;SDS011;20066;48.764;9.176;2023-09-08T12:42:55;11.53;;;7.67;;
549;SDS011;20066;48.764;9.176;2023-09-08T12:45:44;14.40;;;7.47;;
549;SDS011;20066;48.764;9.176;2023-09-08T12:48:14;12.87;;;8.17;;
549;SDS011;20066;48.764;9.176;2023-09-08T12:50:42;14.20;;;8.10;;
549;SDS011;20066;48.764;9.176;2023-09-08T12:53:11;12.80;;;8.00;;
549;SDS011;20066;48.764;9.176;2023-09-08T12:55:39;12.10;;;8.07;;
549;SDS011;20066;48.764;9.176;2023-09-08T12:58:07;16.10;;;7.97;;
549;SDS011;20066;48.764;9.176;2023-09-08T13:00:36;12.00;;;6.60;;
549;SDS011;20066;48.764;9.176;2023-09-08T13:03:21;9.07;;;7.07;;
549;SDS011;20066;48.764;9.176;2023-09-08T13:05:49;10.07;;;6.53;;
549;SDS011;20066;48.764;9.176;2023-09-08T13:08:17;9.20;;;6.73;;
549;SDS011;20066;48.764;9.176;2023-09-08T13:10:46;13.03;;;6.57;;
549;SDS011;20066;48.764;9.176;2023-09-08T13:13:18;11.13;;;7.30;;
549;SDS011;20066;48.764;9.176;2023-09-08T13:15:46;16.63;;;7.87;;
549;SDS011;20066;48.764;9.176;2023-09-08T13:18:17;10.27;;;7.00;;
549;SDS011;20066;48.764;9.176;2023-09-08T13:20:46;11.77;;;7.60;;
549;SDS011;20066;48.764;9.176;2023-09-08T13:23:14;9.00;;;6.70;;
549;SDS011;20066;48.764;9.176;2023-09-08T13:25:42;11.33;;;7.10;;
549;SDS011;20066;48.764;9.176;2023-09-08T13:28:11;16.23;;;7.30;;
549;SDS011;20066;48.764;9.176;2023-09-08T13:30:39;12.00;;;7.30;;
549;SDS011;20066;48.764;9.176;2023-09-08T13:33:09;11.67;;;7.63;;
549;SDS011;20066;48.764;9.176;2023-09-08T13:35:39;13.40;;;7.30;;
549;SDS011;20066;48.764;9.176;2023-09-08T13:38:08;13.23;;;7.63;;
549;SDS011;20066;48.764;9.176;2023-09-08T13:40:36;10.63;;;7.30;;
549;SDS011;20066;48.764;9.176;2023-09-08T13:43:09;11.73;;;7.10;;
549;SDS011;20066;48.764;9.176;2023-09-08T13:45:42;14.97;;;8.60;;
549;SDS011;20066;48.764;9.176;2023-09-08T13:48:20;10.80;;;7.60;;
549;SDS011;20066;48.764;9.176;2023-09-08T13:53:39;10.00;;;7.33;;
549;SDS011;20066;48.764;9.176;2023-09-08T13:56:13;15.77;;;7.20;;
549;SDS011;20066;48.764;9.176;2023-09-08T13:58:46;21.20;;;7.40;;
549;SDS011;20066;48.764;9.176;2023-09-08T14:01:16;16.47;;;7.73;;
549;SDS011;20066;48.764;9.176;2023-09-08T14:03:47;11.50;;;7.50;;
549;SDS011;20066;48.764;9.176;2023-09-08T14:06:22;12.63;;;7.73;;
549;SDS011;20066;48.764;9.176;2023-09-08T14:08:57;10.83;;;7.27;;
549;SDS011;20066;48.764;9.176;2023-09-08T14:11:28;21.87;;;7.10;;
549;SDS011;20066;48.764;9.176;2023-09-08T14:13:59;16.33;;;7.17;;
549;SDS011;20066;48.764;9.176;2023-09-08T14:16:27;9.77;;;6.80;;
549;SDS011;20066;48.764;9.176;2023-09-08T14:18:55;8.20;;;5.93;;
549;SDS011;20066;48.764;9.176;2023-09-08T14:21:25;9.57;;;6.40;;
549;SDS011;20066;48.764;9.176;2023-09-08T14:23:56;9.50;;;6.80;;
549;SDS011;20066;48.764;9.176;2023-09-08T14:26:23;13.80;;;6.50;;
549;SDS011;20066;48.764;9.176;2023-09-08T14:28:52;10.00;;;6.27;;
549;SDS011;20066;48.764;9.176;2023-09-08T14:31:20;12.33;;;7.00;;
549;SDS011;20066;48.764;9.176;2023-09-08T14:33:48;9.10;;;6.30;;
549;SDS011;20066;48.764;9.176;2023-09-08T14:36:16;12.10;;;6.80;;
549;SDS011;20066;48.764;9.176;2023-09-08T14:38:47;12.30;;;6.80;;
549;SDS011;20066;48.764;9.176;2023-09-08T14:41:15;12.00;;;6.27;;
549;SDS011;20066;48.764;9.176;2023-09-08T14:43:43;8.67;;;6.50;;
549;SDS011;20066;48.764;9.176;2023-09-08T14:46:11;11.30;;;6.27;;
549;SDS011;20066;48.764;9.176;2023-09-08T14:48:40;9.53;;;6.77;;
549;SDS011;20066;48.764;9.176;2023-09-08T14:51:08;8.07;;;6.33;;
549;SDS011;20066;48.764;9.176;2023-09-08T14:53:36;11.30;;;6.90;;
549;SDS011;20066;48.764;9.176;2023-09-08T14:56:05;8.40;;;5.70;;
549;SDS011;20066;48.764;9.176;2023-09-08T14:58:33;8.97;;;5.90;;
549;SDS011;20066;48.764;9.176;2023-09-08T15:01:02;8.00;;;6.13;;
549;SDS011;20066;48.764;9.176;2023-09-08T15:03:33;9.13;;;6.70;;
549;SDS011;20066;48.764;9.176;2023-09-08T15:06:03;9.07;;;6.63;;
549;SDS011;20066;48.764;9.176;2023-09-08T15:08:31;16.97;;;7.17;;
549;SDS011;20066;48.764;9.176;2023-09-08T15:11:00;9.37;;;6.37;;
549;SDS011;20066;48.764;9.176;2023-09-08T15:13:31;9.37;;;5.43;;
549;SDS011;20066;48.764;9.176;2023-09-08T15:15:59;11.30;;;6.37;;